Time;durP1;ratioP1;P1;durP2;ratioP2;P2;SDS_P1;SDS_P2;PMS_P1;PMS_P2;Temp;Humidity;BMP_temperature;BMP_pressure;BME280_temperature;BME280_humidity;BME280_pressure;Samples;Min_cycle;Max_cycle;Signal;HPM_P1;HPM_P2
2022/08/24 00:00:59;;;;;;;5.43;5.03;;;24.10;51.80;;;;;;5032363;28;20205;-88
2022/08/24 00:03:24;;;;;;;5.50;5.10;;;24.00;52.60;;;;;;5029040;28;20289;-89
2022/08/24 00:05:50;;;;;;;5.47;5.03;;;23.80;52.40;;;;;;5036335;28;20572;-84
2022/08/24 00:08:17;;;;;;;4.88;4.57;;;23.80;52.70;;;;;;5035108;28;20258;-84
2022/08/24 00:10:43;;;;;;;5.32;4.93;;;23.70;53.30;;;;;;5031538;28;20214;-84
2022/08/24 00:13:09;;;;;;;5.53;5.13;;;23.70;53.80;;;;;;5028524;28;20191;-86
2022/08/24 00:15:34;;;;;;;6.45;5.45;;;23.70;53.70;;;;;;5028143;28;20181;-83
2022/08/24 00:18:00;;;;;;;5.40;4.95;;;23.70;53.50;;;;;;5029966;28;20181;-85
2022/08/24 00:20:26;;;;;;;6.07;5.57;;;23.80;53.20;;;;;;5024046;28;20224;-85
2022/08/24 00:22:51;;;;;;;5.78;5.38;;;23.70;53.80;;;;;;5022672;28;20582;-85
2022/08/24 00:25:19;;;;;;;5.60;5.20;;;23.80;53.10;;;;;;5030426;28;20272;-85
2022/08/24 00:27:45;;;;;;;5.68;5.28;;;23.80;53.60;;;;;;5017546;28;20696;-85
2022/08/24 00:30:14;;;;;;;5.40;4.90;;;23.80;53.40;;;;;;5022306;28;20205;-85
2022/08/24 00:32:42;;;;;;;5.65;4.90;;;23.80;53.40;;;;;;5042735;28;20783;-87
2022/08/24 00:35:08;;;;;;;5.40;4.93;;;23.70;53.80;;;;;;5040584;28;20228;-89
2022/08/24 00:37:35;;;;;;;5.15;4.85;;;23.70;54.20;;;;;;5040778;28;20185;-86
2022/08/24 00:40:04;;;;;;;5.22;4.93;;;23.60;54.40;;;;;;5039507;28;20353;-84
2022/08/24 00:42:29;;;;;;;5.43;5.05;;;23.30;55.60;;;;;;5032194;28;20651;-88
2022/08/24 00:44:55;;;;;;;5.93;5.38;;;23.30;56.20;;;;;;5021966;28;20224;-86
2022/08/24 00:47:24;;;;;;;6.20;5.80;;;23.20;55.80;;;;;;5026252;28;20706;-86
2022/08/24 00:49:59;;;;;;;5.28;4.93;;;23.20;55.80;;;;;;5024455;28;20252;-85
2022/08/24 00:52:48;;;;;;;6.15;5.68;;;23.10;56.00;;;;;;5022189;28;20189;-86
2022/08/24 00:55:27;;;;;;;5.88;5.47;;;23.20;55.60;;;;;;5025866;28;20182;-84
2022/08/24 00:57:58;;;;;;;5.85;5.45;;;23.20;55.90;;;;;;5023792;28;20177;-86
2022/08/24 01:00:30;;;;;;;6.00;5.60;;;23.10;56.40;;;;;;5023886;28;20207;-86
2022/08/24 01:03:03;;;;;;;5.45;5.05;;;23.10;56.30;;;;;;5026325;28;20188;-84
2022/08/24 01:05:30;;;;;;;5.70;5.30;;;23.10;56.30;;;;;;5021002;28;20193;-86
2022/08/24 01:07:57;;;;;;;6.07;5.45;;;23.10;56.20;;;;;;5025919;28;20720;-86
2022/08/24 01:10:26;;;;;;;5.55;5.13;;;23.00;56.30;;;;;;5030257;28;20292;-86
2022/08/24 01:13:02;;;;;;;5.43;5.10;;;22.90;56.70;;;;;;5022689;28;20182;-86
2022/08/24 01:15:29;;;;;;;5.80;5.40;;;22.90;57.20;;;;;;5024819;28;20181;-87
2022/08/24 01:20:44;;;;;;;5.65;5.25;;;22.70;58.20;;;;;;5024864;28;20276;-86
2022/08/24 01:23:33;;;;;;;5.70;5.30;;;22.70;58.10;;;;;;5022622;28;20251;-86
2022/08/24 01:25:59;;;;;;;5.70;5.30;;;22.70;57.90;;;;;;5022077;28;20188;-87
2022/08/24 01:28:25;;;;;;;6.25;5.57;;;22.80;57.90;;;;;;5024317;28;20285;-85
2022/08/24 01:30:51;;;;;;;6.38;5.90;;;22.80;57.50;;;;;;5026599;28;20200;-86
2022/08/24 01:33:27;;;;;;;5.85;5.40;;;22.90;57.20;;;;;;5031959;28;20177;-87
2022/08/24 01:36:11;;;;;;;6.20;5.60;;;22.90;56.90;;;;;;5028172;28;20819;-87
2022/08/24 01:38:36;;;;;;;5.88;5.38;;;22.90;56.20;;;;;;5025229;28;20181;-86
2022/08/24 01:41:03;;;;;;;5.85;5.45;;;22.60;57.70;;;;;;5022907;28;20224;-86
2022/08/24 01:43:29;;;;;;;6.43;5.93;;;22.40;58.70;;;;;;5028646;28;20202;-85
2022/08/24 01:45:55;;;;;;;5.78;5.38;;;22.40;59.10;;;;;;5029912;28;20193;-85
2022/08/24 01:48:20;;;;;;;6.28;5.78;;;22.30;59.10;;;;;;5028970;28;20209;-87
2022/08/24 01:50:46;;;;;;;6.13;5.70;;;22.30;59.80;;;;;;5025890;28;20217;-86
2022/08/24 01:53:12;;;;;;;6.35;5.72;;;22.10;60.70;;;;;;5030787;28;20567;-86
2022/08/24 01:55:40;;;;;;;6.43;5.80;;;22.00;61.30;;;;;;5029061;28;20187;-86
2022/08/24 01:58:06;;;;;;;6.13;5.60;;;21.90;60.80;;;;;;5027898;28;20185;-86
2022/08/24 02:00:34;;;;;;;6.35;5.85;;;21.90;61.10;;;;;;5032411;28;20201;-85
2022/08/24 02:03:01;;;;;;;6.30;5.70;;;21.90;61.80;;;;;;5030651;28;20360;-87
2022/08/24 02:05:27;;;;;;;5.88;5.43;;;21.90;63.40;;;;;;5035192;28;20213;-86
2022/08/24 02:07:53;;;;;;;7.60;6.20;;;22.00;62.80;;;;;;5027749;28;20257;-87
2022/08/24 02:10:19;;;;;;;6.15;5.57;;;22.00;62.50;;;;;;5032656;28;20205;-87
2022/08/24 02:12:56;;;;;;;6.85;6.25;;;22.10;61.70;;;;;;5029156;28;20262;-87
2022/08/24 02:15:38;;;;;;;6.57;6.07;;;22.30;61.50;;;;;;5036589;28;20735;-87
2022/08/24 02:18:06;;;;;;;6.32;5.80;;;22.10;61.70;;;;;;5035687;28;20269;-87
2022/08/24 02:20:33;;;;;;;5.93;5.53;;;21.70;63.60;;;;;;5033229;28;20676;-86
2022/08/24 02:22:58;;;;;;;6.30;5.90;;;21.70;63.00;;;;;;5028742;28;20240;-86
2022/08/24 02:25:26;;;;;;;7.03;5.70;;;21.70;62.60;;;;;;5029324;28;20181;-87
2022/08/24 02:27:52;;;;;;;6.55;5.55;;;21.80;62.40;;;;;;5029476;28;20181;-86
2022/08/24 02:30:18;;;;;;;5.80;5.38;;;22.00;62.00;;;;;;5029225;28;20728;-85
2022/08/24 02:32:43;;;;;;;6.10;5.60;;;22.10;61.40;;;;;;5037015;28;20177;-86
2022/08/24 02:35:10;;;;;;;6.78;5.57;;;22.10;61.10;;;;;;5028055;28;20196;-83
2022/08/24 02:37:36;;;;;;;6.25;5.63;;;22.20;60.90;;;;;;5027233;28;20196;-85
2022/08/24 02:40:03;;;;;;;5.82;5.43;;;22.30;60.50;;;;;;5030314;28;20224;-85
2022/08/24 02:42:28;;;;;;;5.93;5.53;;;22.20;60.60;;;;;;5027470;28;20188;-85
2022/08/24 02:44:54;;;;;;;6.65;6.10;;;21.80;62.70;;;;;;5034397;28;20192;-86
2022/08/24 02:47:20;;;;;;;6.32;5.75;;;21.60;63.90;;;;;;5030306;28;20256;-86
2022/08/24 02:49:47;;;;;;;5.63;5.22;;;21.60;63.00;;;;;;5027040;28;20237;-85
2022/08/24 02:52:12;;;;;;;7.00;6.40;;;21.60;63.70;;;;;;5026789;28;20316;-86
2022/08/24 02:54:38;;;;;;;6.18;5.60;;;21.60;63.80;;;;;;5026933;28;20209;-85
2022/08/24 02:57:04;;;;;;;5.95;5.45;;;21.60;63.70;;;;;;5037417;28;20185;-86
2022/08/24 02:59:30;;;;;;;5.97;5.53;;;21.70;63.80;;;;;;5027960;28;20249;-85
2022/08/24 03:01:56;;;;;;;6.32;5.72;;;21.70;63.30;;;;;;5035883;28;20193;-85
2022/08/24 03:04:22;;;;;;;6.47;5.80;;;21.80;62.80;;;;;;5029188;28;20182;-85
2022/08/24 03:06:47;;;;;;;6.60;6.05;;;21.80;63.10;;;;;;5030268;28;20201;-86
2022/08/24 03:09:13;;;;;;;6.10;5.63;;;21.60;64.20;;;;;;5030628;28;20202;-86
2022/08/24 03:11:39;;;;;;;5.47;5.10;;;21.40;65.50;;;;;;5027400;28;20214;-85
2022/08/24 03:14:05;;;;;;;5.80;5.40;;;21.40;64.90;;;;;;5025371;28;20342;-85
2022/08/24 03:16:31;;;;;;;6.53;6.13;;;21.50;64.40;;;;;;5029408;28;20181;-85
2022/08/24 03:18:57;;;;;;;6.25;5.78;;;21.50;64.40;;;;;;5027756;28;20248;-85
2022/08/24 03:21:23;;;;;;;6.00;5.57;;;21.60;63.80;;;;;;5031935;28;20200;-85
2022/08/24 03:23:48;;;;;;;5.95;5.50;;;21.60;63.00;;;;;;5029006;28;20189;-85
2022/08/24 03:26:14;;;;;;;6.05;5.65;;;21.60;62.80;;;;;;5031176;28;20561;-86
2022/08/24 03:28:40;;;;;;;6.10;5.70;;;21.70;63.20;;;;;;5033414;28;20265;-85
2022/08/24 03:31:06;;;;;;;6.25;5.68;;;21.40;64.40;;;;;;5030960;28;20200;-86
2022/08/24 03:33:32;;;;;;;6.10;5.68;;;21.10;65.50;;;;;;5029946;28;20217;-86
2022/08/24 03:35:58;;;;;;;8.48;7.78;;;21.20;64.80;;;;;;5027591;28;20711;-85
2022/08/24 03:38:24;;;;;;;6.55;5.85;;;21.10;65.20;;;;;;5026235;28;20656;-86
2022/08/24 03:40:49;;;;;;;6.70;6.10;;;21.20;64.40;;;;;;5023542;28;20209;-86
2022/08/24 03:46:01;;;;;;;6.32;5.90;;;21.20;64.90;;;;;;5025265;28;20273;-86
2022/08/24 03:48:29;;;;;;;7.13;5.95;;;20.90;66.10;;;;;;5033221;28;20292;-85
2022/08/24 03:50:55;;;;;;;7.65;5.97;;;20.50;68.40;;;;;;5026238;28;20849;-85
2022/08/24 03:53:21;;;;;;;6.45;5.82;;;20.60;68.10;;;;;;5025005;28;20196;-86
2022/08/24 03:55:46;;;;;;;6.28;5.63;;;20.80;66.80;;;;;;5023043;28;20188;-86
2022/08/24 03:58:12;;;;;;;9.88;5.90;;;20.80;66.50;;;;;;5010374;28;20266;-85
2022/08/24 04:00:41;;;;;;;6.20;5.60;;;20.80;66.40;;;;;;5031784;28;20223;-83
2022/08/24 04:03:08;;;;;;;6.18;5.70;;;20.90;65.80;;;;;;5035297;28;20180;-84
2022/08/24 04:05:35;;;;;;;5.70;5.30;;;21.00;65.40;;;;;;5030158;28;20191;-85
2022/08/24 04:08:00;;;;;;;5.95;5.45;;;21.00;65.00;;;;;;5033083;28;20493;-85
2022/08/24 04:10:27;;;;;;;5.88;5.38;;;21.00;64.90;;;;;;5032996;28;20206;-84
2022/08/24 04:12:53;;;;;;;5.70;5.30;;;21.00;65.10;;;;;;5030525;28;20651;-83
2022/08/24 04:15:19;;;;;;;6.05;5.55;;;21.00;64.80;;;;;;5027048;28;20200;-86
2022/08/24 04:17:44;;;;;;;5.90;5.50;;;21.00;64.70;;;;;;5033086;28;20181;-84
2022/08/24 04:20:10;;;;;;;5.75;5.35;;;20.90;64.60;;;;;;5025116;28;20213;-85
2022/08/24 04:22:36;;;;;;;6.55;6.05;;;20.90;64.90;;;;;;5029013;28;20242;-85
2022/08/24 04:25:06;;;;;;;6.03;5.63;;;20.90;64.70;;;;;;5029589;28;20263;-85
2022/08/24 04:27:32;;;;;;;5.82;5.43;;;20.90;64.80;;;;;;5027166;28;20592;-84
2022/08/24 04:29:58;;;;;;;5.88;5.47;;;20.90;64.50;;;;;;5030746;28;20337;-83
2022/08/24 04:32:24;;;;;;;6.75;5.90;;;20.80;64.80;;;;;;5037816;28;20192;-84
2022/08/24 04:34:50;;;;;;;6.20;5.70;;;20.80;64.60;;;;;;5024695;28;20189;-84
2022/08/24 04:37:16;;;;;;;6.47;5.88;;;20.80;64.50;;;;;;5029481;28;20187;-84
2022/08/24 04:39:42;;;;;;;5.82;5.43;;;20.60;66.50;;;;;;5027630;28;20269;-84
2022/08/24 04:42:09;;;;;;;6.18;5.78;;;20.40;66.30;;;;;;5026679;28;20269;-85
2022/08/24 04:44:34;;;;;;;6.50;6.00;;;20.50;65.90;;;;;;5026938;28;20244;-84
2022/08/24 04:47:00;;;;;;;6.13;5.72;;;20.50;66.60;;;;;;5017411;28;20188;-84
2022/08/24 04:49:26;;;;;;;6.97;6.30;;;20.60;66.00;;;;;;5026275;28;20576;-83
2022/08/24 04:51:52;;;;;;;6.60;6.10;;;20.60;65.70;;;;;;5024076;28;20200;-83
2022/08/24 04:54:18;;;;;;;6.88;6.20;;;20.70;65.20;;;;;;5024823;28;20188;-85
2022/08/24 04:56:43;;;;;;;6.88;5.78;;;20.70;65.10;;;;;;5029742;28;20270;-83
2022/08/24 04:59:09;;;;;;;12.95;6.18;;;20.80;64.80;;;;;;5025479;28;20185;-85
2022/08/24 05:01:35;;;;;;;7.00;6.28;;;20.70;65.10;;;;;;5022509;28;20213;-83
2022/08/24 05:04:03;;;;;;;8.00;6.55;;;20.70;65.00;;;;;;5027065;28;20412;-84
2022/08/24 05:06:31;;;;;;;7.70;5.68;;;20.70;64.40;;;;;;5026806;28;20195;-84
2022/08/24 05:08:57;;;;;;;6.53;5.93;;;20.60;64.80;;;;;;5026469;28;20227;-83
2022/08/24 05:11:23;;;;;;;9.93;6.15;;;20.60;65.20;;;;;;5019919;28;20228;-84
2022/08/24 05:13:53;;;;;;;9.70;6.55;;;20.60;65.60;;;;;;5021610;28;20192;-83
2022/08/24 05:16:19;;;;;;;32.40;8.07;;;20.70;65.20;;;;;;5025979;28;20195;-83
2022/08/24 05:18:45;;;;;;;23.75;8.02;;;20.70;64.90;;;;;;5034278;28;20185;-84
2022/08/24 05:21:16;;;;;;;14.82;6.75;;;20.70;64.80;;;;;;5031460;28;20210;-85
2022/08/24 05:23:42;;;;;;;9.43;6.03;;;20.70;64.90;;;;;;5032846;28;20696;-83
2022/08/24 05:26:10;;;;;;;6.75;5.90;;;20.60;65.40;;;;;;5029984;28;20344;-85
2022/08/24 05:28:37;;;;;;;7.35;6.55;;;20.60;65.70;;;;;;5033731;28;20214;-84
2022/08/24 05:31:15;;;;;;;9.65;6.75;;;20.70;66.10;;;;;;5027988;28;20288;-84
2022/08/24 05:33:41;;;;;;;7.63;5.80;;;20.60;67.30;;;;;;5032600;28;20190;-84
2022/08/24 05:36:21;;;;;;;7.22;6.47;;;20.60;66.60;;;;;;5028490;28;20190;-84
2022/08/24 05:38:48;;;;;;;6.60;6.00;;;20.60;66.60;;;;;;5029312;28;20222;-85
2022/08/24 05:41:15;;;;;;;6.75;6.20;;;20.60;66.60;;;;;;5034106;28;20232;-84
2022/08/24 05:43:42;;;;;;;8.43;6.22;;;20.60;66.70;;;;;;5036578;28;20185;-88
2022/08/24 05:46:07;;;;;;;8.25;6.07;;;20.60;66.70;;;;;;5028627;28;20439;-84
2022/08/24 05:48:37;;;;;;;7.03;6.40;;;20.70;66.50;;;;;;5017674;28;20196;-83
2022/08/24 05:51:05;;;;;;;6.65;6.00;;;20.80;66.00;;;;;;5031542;28;20254;-84
2022/08/24 05:53:31;;;;;;;7.70;6.93;;;20.70;66.20;;;;;;5034070;28;20188;-85
2022/08/24 05:55:56;;;;;;;7.30;6.60;;;20.80;66.20;;;;;;5028533;28;20204;-83
2022/08/24 05:58:22;;;;;;;8.98;7.20;;;20.70;66.10;;;;;;5031001;28;20257;-86
2022/08/24 06:00:49;;;;;;;7.68;6.80;;;20.80;65.70;;;;;;5031879;28;20626;-84
2022/08/24 06:03:15;;;;;;;10.00;6.68;;;20.80;65.90;;;;;;5016459;28;20191;-84
2022/08/24 06:05:42;;;;;;;9.48;7.60;;;20.90;65.50;;;;;;5032683;28;20192;-85
2022/08/24 06:08:09;;;;;;;11.85;6.22;;;20.90;66.10;;;;;;5035770;28;20185;-85
2022/08/24 06:10:42;;;;;;;7.38;6.70;;;21.00;65.20;;;;;;5034014;28;20238;-84
2022/08/24 06:13:09;;;;;;;7.60;6.53;;;21.00;66.40;;;;;;5048170;28;20176;-86
2022/08/24 06:15:36;;;;;;;8.43;6.97;;;20.90;67.10;;;;;;5046340;28;20184;-86
2022/08/24 06:18:03;;;;;;;8.30;7.50;;;20.80;68.00;;;;;;5045402;28;20188;-85
2022/08/24 06:20:30;;;;;;;8.52;7.72;;;20.80;69.60;;;;;;5030763;28;20286;-86
2022/08/24 06:22:56;;;;;;;8.13;7.50;;;20.60;70.30;;;;;;5034645;28;20658;-85
2022/08/24 06:28:05;;;;;;;7.93;7.15;;;20.70;69.30;;;;;;5022699;28;20677;-84
2022/08/24 06:30:31;;;;;;;7.90;6.78;;;20.90;70.40;;;;;;5028538;28;20213;-84
2022/08/24 06:33:01;;;;;;;7.60;6.85;;;20.90;69.20;;;;;;5030835;28;20188;-84
2022/08/24 06:35:27;;;;;;;8.13;7.15;;;21.10;69.20;;;;;;5030055;28;20276;-84
2022/08/24 06:37:53;;;;;;;8.85;7.13;;;21.20;68.80;;;;;;5036032;28;20292;-84
2022/08/24 06:40:19;;;;;;;7.35;6.65;;;21.30;69.00;;;;;;5033173;28;20242;-84
2022/08/24 06:42:45;;;;;;;9.88;6.85;;;21.30;67.80;;;;;;5032838;28;20253;-84
2022/08/24 06:45:11;;;;;;;8.00;6.40;;;21.40;66.80;;;;;;5034441;28;20173;-85
2022/08/24 06:47:37;;;;;;;7.22;6.53;;;21.50;63.90;;;;;;5034291;28;20173;-84
2022/08/24 06:50:05;;;;;;;7.82;6.38;;;21.60;62.70;;;;;;5029455;28;20228;-85
2022/08/24 06:52:31;;;;;;;9.68;6.95;;;21.60;62.80;;;;;;5035602;28;20181;-84
2022/08/24 06:54:57;;;;;;;8.05;7.00;;;21.60;61.90;;;;;;5036046;28;20189;-85
2022/08/24 06:57:23;;;;;;;6.32;5.82;;;21.70;61.90;;;;;;5033094;28;20510;-85
2022/08/24 06:59:48;;;;;;;7.00;6.40;;;21.70;61.90;;;;;;5023645;28;20212;-86
2022/08/24 07:02:17;;;;;;;8.65;6.55;;;21.80;61.10;;;;;;5026945;28;20196;-84
2022/08/24 07:04:43;;;;;;;7.00;6.35;;;21.80;59.80;;;;;;5025872;28;20181;-85
2022/08/24 07:07:09;;;;;;;7.05;6.45;;;21.70;61.60;;;;;;5029337;28;20178;-84
2022/08/24 07:09:34;;;;;;;7.43;5.95;;;21.80;59.80;;;;;;5025838;28;20715;-84
2022/08/24 07:12:00;;;;;;;6.88;6.25;;;21.90;60.00;;;;;;5026688;28;20311;-83
2022/08/24 07:14:26;;;;;;;7.68;6.07;;;21.90;58.60;;;;;;5027194;28;20182;-82
2022/08/24 07:16:52;;;;;;;7.25;6.60;;;21.90;58.90;;;;;;5020243;28;20199;-85
2022/08/24 07:19:18;;;;;;;6.50;5.97;;;22.00;59.50;;;;;;5028700;28;20185;-84
2022/08/24 07:21:44;;;;;;;7.60;6.20;;;22.10;58.20;;;;;;5023249;28;20220;-82
2022/08/24 07:24:13;;;;;;;6.57;6.07;;;22.30;58.00;;;;;;5032740;28;20235;-85
2022/08/24 07:26:40;;;;;;;6.57;5.95;;;22.40;56.80;;;;;;5027783;28;20201;-86
2022/08/24 07:29:10;;;;;;;6.63;6.03;;;22.50;55.50;;;;;;5030022;28;20189;-84
2022/08/24 07:31:38;;;;;;;6.65;5.82;;;22.60;55.90;;;;;;5032658;28;20201;-84
2022/08/24 07:34:06;;;;;;;8.25;6.00;;;22.70;57.00;;;;;;5034401;28;20177;-89
2022/08/24 07:36:32;;;;;;;7.80;6.40;;;22.80;55.00;;;;;;5032121;28;20185;-86
2022/08/24 07:38:58;;;;;;;7.43;6.30;;;22.90;54.70;;;;;;5032636;28;20224;-84
2022/08/24 07:41:26;;;;;;;9.18;6.28;;;23.00;54.50;;;;;;5032735;28;20229;-85
2022/08/24 07:43:53;;;;;;;6.70;6.10;;;23.00;54.10;;;;;;5034076;28;20181;-85
2022/08/24 07:46:21;;;;;;;6.38;5.72;;;23.00;53.90;;;;;;5027716;28;20274;-88
2022/08/24 07:48:49;;;;;;;8.88;6.38;;;23.10;53.20;;;;;;5033524;28;20278;-87
2022/08/24 07:51:17;;;;;;;6.00;5.50;;;23.10;52.50;;;;;;5030433;28;20274;-85
2022/08/24 07:53:43;;;;;;;6.53;5.93;;;23.30;52.50;;;;;;5034873;28;20204;-87
2022/08/24 07:56:12;;;;;;;7.78;5.63;;;23.30;53.00;;;;;;5034760;28;20702;-86
2022/08/24 07:58:38;;;;;;;7.95;5.72;;;23.40;51.90;;;;;;5032967;28;20211;-85
2022/08/24 08:01:04;;;;;;;7.70;5.97;;;23.50;51.40;;;;;;5034054;28;20216;-86
2022/08/24 08:03:32;;;;;;;5.90;5.35;;;23.60;51.90;;;;;;5032581;28;20208;-85
2022/08/24 08:06:01;;;;;;;8.63;6.20;;;23.70;51.30;;;;;;5029242;28;20212;-86
2022/08/24 08:08:27;;;;;;;6.15;5.60;;;23.90;50.80;;;;;;5028308;28;20224;-86
2022/08/24 08:10:53;;;;;;;5.80;5.38;;;23.90;50.40;;;;;;5030702;28;20270;-85
2022/08/24 08:13:19;;;;;;;9.40;6.25;;;24.00;50.40;;;;;;5032326;28;20615;-86
2022/08/24 08:15:45;;;;;;;6.65;5.65;;;24.20;51.30;;;;;;5032180;28;20260;-85
2022/08/24 08:18:14;;;;;;;5.85;5.32;;;24.30;50.70;;;;;;5028667;28;20188;-85
2022/08/24 08:20:41;;;;;;;6.25;5.60;;;24.50;50.50;;;;;;5030527;28;20676;-86
2022/08/24 08:25:56;;;;;;;6.65;5.70;;;24.60;49.50;;;;;;5030793;28;20239;-86
2022/08/24 08:28:23;;;;;;;7.47;5.85;;;24.80;49.00;;;;;;5028295;28;20278;-85
2022/08/24 08:30:48;;;;;;;6.65;5.97;;;24.80;48.50;;;;;;5031857;28;20215;-86
2022/08/24 08:33:15;;;;;;;6.43;5.93;;;24.90;48.80;;;;;;5034761;28;20181;-85
2022/08/24 08:35:43;;;;;;;6.80;6.20;;;25.10;48.60;;;;;;5032728;28;20207;-86
2022/08/24 08:38:09;;;;;;;6.60;6.07;;;25.30;48.10;;;;;;5031502;28;20180;-86
2022/08/24 08:40:44;;;;;;;6.68;6.00;;;25.40;47.30;;;;;;5030227;28;20205;-86
2022/08/24 08:43:28;;;;;;;6.78;5.63;;;25.50;46.20;;;;;;5034419;28;20192;-85
2022/08/24 08:46:17;;;;;;;5.75;5.25;;;25.60;45.90;;;;;;5033846;28;20188;-86
2022/08/24 08:48:53;;;;;;;8.07;5.20;;;25.80;46.30;;;;;;5030615;28;20205;-83
2022/08/24 08:51:56;;;;;;;5.25;4.85;;;26.00;44.30;;;;;;5027036;28;20952;-86
2022/08/24 08:54:31;;;;;;;5.78;5.18;;;26.20;42.40;;;;;;5032635;28;20192;-87
2022/08/24 08:57:35;;;;;;;5.65;4.90;;;26.40;41.80;;;;;;5029334;28;20177;-87
2022/08/24 09:00:16;;;;;;;5.93;5.45;;;26.60;41.00;;;;;;5022422;28;20247;-86
2022/08/24 09:03:10;;;;;;;5.22;4.75;;;26.80;40.10;;;;;;5030203;28;20648;-85
2022/08/24 09:06:01;;;;;;;5.75;5.25;;;27.10;39.10;;;;;;4992363;28;20190;-86
2022/08/24 09:08:33;;;;;;;6.20;4.85;;;27.40;37.90;;;;;;5031522;28;20669;-85
2022/08/24 09:11:01;;;;;;;5.25;4.82;;;27.50;38.60;;;;;;5031557;28;20208;-85
2022/08/24 09:13:46;;;;;;;5.45;5.03;;;27.80;37.60;;;;;;5028578;28;20276;-87
2022/08/24 09:16:40;;;;;;;5.75;4.93;;;27.90;36.70;;;;;;5029221;28;20239;-86
2022/08/24 09:19:06;;;;;;;5.50;5.10;;;28.00;37.20;;;;;;5025524;28;20404;-86
2022/08/24 09:21:47;;;;;;;5.70;4.97;;;28.20;36.60;;;;;;5029608;28;20208;-86
2022/08/24 09:24:33;;;;;;;5.43;4.95;;;28.40;36.60;;;;;;5026466;28;20177;-86
2022/08/24 09:27:01;;;;;;;5.30;4.90;;;28.60;36.10;;;;;;5033667;28;20219;-86
2022/08/24 09:29:54;;;;;;;7.28;5.28;;;28.70;35.70;;;;;;5030486;28;20272;-86
2022/08/24 09:32:58;;;;;;;5.60;5.10;;;29.00;35.40;;;;;;5028704;28;20193;-87
2022/08/24 09:35:44;;;;;;;7.13;5.10;;;29.20;35.10;;;;;;5027574;28;20172;-86
2022/08/24 09:38:15;;;;;;;4.93;4.47;;;29.30;33.90;;;;;;5028490;28;20205;-86
2022/08/24 09:41:12;;;;;;;5.60;5.07;;;29.40;33.60;;;;;;5028191;28;20352;-87
2022/08/24 09:44:01;;;;;;;6.05;4.93;;;29.50;33.40;;;;;;5021043;28;20189;-85
2022/08/24 09:46:33;;;;;;;8.10;5.70;;;29.70;33.60;;;;;;5028155;28;20177;-87
2022/08/24 09:49:29;;;;;;;6.97;5.10;;;30.00;32.00;;;;;;5027036;28;20197;-85
2022/08/24 09:52:08;;;;;;;7.47;5.10;;;30.30;31.90;;;;;;5025655;28;20605;-86
2022/08/24 09:54:57;;;;;;;5.25;4.85;;;30.30;32.20;;;;;;5030493;28;20174;-86
2022/08/24 09:57:43;;;;;;;6.72;4.90;;;30.20;31.50;;;;;;5031619;28;20197;-86
2022/08/24 10:00:36;;;;;;;4.80;4.40;;;30.40;31.40;;;;;;5041041;28;20232;-88
2022/08/24 10:03:16;;;;;;;5.18;4.78;;;30.60;30.20;;;;;;5029013;28;20181;-86
2022/08/24 10:06:06;;;;;;;5.15;4.75;;;30.70;29.80;;;;;;5029281;28;20200;-86
2022/08/24 10:08:52;;;;;;;6.90;4.60;;;31.00;29.80;;;;;;5028463;28;20229;-86
2022/08/24 10:11:32;;;;;;;4.78;4.35;;;31.10;29.60;;;;;;5024050;28;20231;-87
2022/08/24 10:14:06;;;;;;;4.68;4.28;;;31.10;29.20;;;;;;5029588;28;20193;-87
2022/08/24 10:16:45;;;;;;;5.28;4.20;;;31.10;29.20;;;;;;5031674;28;20177;-87
2022/08/24 10:19:29;;;;;;;5.60;4.38;;;31.30;29.00;;;;;;5030783;28;20190;-87
2022/08/24 10:21:58;;;;;;;4.40;4.10;;;31.40;29.10;;;;;;5032213;28;20672;-85
2022/08/24 10:24:37;;;;;;;4.63;4.20;;;31.50;28.30;;;;;;5030757;28;20726;-87
2022/08/24 10:27:35;;;;;;;4.50;4.10;;;31.50;28.50;;;;;;5028542;28;20188;-87
2022/08/24 10:30:20;;;;;;;4.47;4.18;;;31.70;28.50;;;;;;5023933;28;20244;-86
2022/08/24 10:33:08;;;;;;;4.80;4.28;;;31.90;27.60;;;;;;5029872;28;20173;-87
2022/08/24 10:35:45;;;;;;;4.38;4.18;;;32.00;27.50;;;;;;5028742;28;20207;-87
2022/08/24 10:41:31;;;;;;;4.70;4.30;;;32.40;27.10;;;;;;5028344;28;20259;-87
2022/08/24 10:44:27;;;;;;;4.82;4.43;;;32.40;27.10;;;;;;5029643;28;20327;-88
2022/08/24 10:46:59;;;;;;;4.53;4.22;;;32.50;26.60;;;;;;5030635;28;20204;-87
2022/08/24 10:49:38;;;;;;;4.50;4.30;;;32.60;26.60;;;;;;5032707;28;20216;-86
2022/08/24 10:52:09;;;;;;;4.82;4.53;;;32.60;26.20;;;;;;5031314;28;20416;-86
2022/08/24 10:54:36;;;;;;;4.68;4.22;;;32.80;26.10;;;;;;5030327;28;20688;-83
2022/08/24 10:57:05;;;;;;;4.88;4.47;;;33.00;26.20;;;;;;5027188;28;20203;-87
2022/08/24 11:00:00;;;;;;;4.63;4.32;;;33.20;25.50;;;;;;5027017;28;20278;-87
2022/08/24 11:02:43;;;;;;;4.30;4.00;;;33.20;25.30;;;;;;5028323;28;20676;-87
2022/08/24 11:05:12;;;;;;;4.88;4.20;;;33.30;25.10;;;;;;5027332;28;20196;-87
2022/08/24 11:07:59;;;;;;;4.38;4.13;;;33.50;24.50;;;;;;5029103;28;20526;-87
2022/08/24 11:10:29;;;;;;;4.68;4.28;;;33.60;24.60;;;;;;5030278;28;20258;-88
2022/08/24 11:12:55;;;;;;;5.03;4.72;;;33.80;24.00;;;;;;5032138;28;20192;-86
2022/08/24 11:15:26;;;;;;;5.15;4.85;;;33.80;24.20;;;;;;5031816;28;20185;-85
2022/08/24 11:18:02;;;;;;;4.88;4.57;;;34.00;24.20;;;;;;5031592;28;20319;-89
2022/08/24 11:20:45;;;;;;;5.03;4.68;;;34.10;24.20;;;;;;5032414;28;20208;-85
2022/08/24 11:23:20;;;;;;;5.22;4.93;;;34.00;23.80;;;;;;5031179;28;20189;-84
2022/08/24 11:26:01;;;;;;;5.70;5.20;;;34.10;24.10;;;;;;5030732;28;20234;-85
2022/08/24 11:28:32;;;;;;;5.50;4.95;;;34.50;24.20;;;;;;5031472;28;20189;-86
2022/08/24 11:30:58;;;;;;;5.70;4.80;;;34.60;23.40;;;;;;5031037;28;20711;-87
2022/08/24 11:33:43;;;;;;;5.78;5.28;;;34.60;23.70;;;;;;5032019;28;20231;-85
2022/08/24 11:36:16;;;;;;;5.70;5.20;;;34.40;23.90;;;;;;5031102;28;20564;-87
2022/08/24 11:38:42;;;;;;;5.50;5.20;;;34.70;22.90;;;;;;5029897;28;20284;-86
2022/08/24 11:41:25;;;;;;;5.60;4.80;;;34.60;23.20;;;;;;5031685;28;20237;-86
2022/08/24 11:44:19;;;;;;;5.53;5.13;;;34.70;23.10;;;;;;5028216;28;20270;-86
2022/08/24 11:46:57;;;;;;;5.95;5.55;;;35.10;23.00;;;;;;5029656;28;20204;-86
2022/08/24 11:49:32;;;;;;;6.18;5.57;;;35.20;23.00;;;;;;5031086;28;20304;-85
2022/08/24 11:52:11;;;;;;;5.85;5.28;;;35.10;23.20;;;;;;5030831;28;20195;-87
2022/08/24 11:54:47;;;;;;;5.38;5.00;;;35.00;23.10;;;;;;5029991;28;20561;-86
2022/08/24 11:57:15;;;;;;;5.50;5.10;;;35.40;22.50;;;;;;5028938;28;20172;-86
2022/08/24 12:00:00;;;;;;;5.70;5.40;;;35.30;23.00;;;;;;5031071;28;20196;-86
2022/08/24 12:02:32;;;;;;;5.90;5.40;;;35.60;22.90;;;;;;5029928;28;20195;-86
2022/08/24 12:05:23;;;;;;;5.68;5.18;;;35.50;23.10;;;;;;5029283;28;20239;-86
2022/08/24 12:08:09;;;;;;;5.90;5.43;;;35.50;23.00;;;;;;5030228;28;20246;-85
2022/08/24 12:10:47;;;;;;;5.85;5.50;;;35.80;22.70;;;;;;5026597;28;20455;-84
2022/08/24 12:13:26;;;;;;;5.60;5.30;;;35.90;22.50;;;;;;5031400;28;20199;-85
2022/08/24 12:16:04;;;;;;;6.10;5.68;;;36.00;22.90;;;;;;5030457;28;20267;-86
2022/08/24 12:18:44;;;;;;;6.40;5.90;;;36.40;22.80;;;;;;5032516;28;20223;-86
2022/08/24 12:21:14;;;;;;;6.05;5.55;;;36.00;22.90;;;;;;5031171;28;20208;-86
2022/08/24 12:23:50;;;;;;;7.45;5.72;;;36.20;22.70;;;;;;5031878;28;20181;-86
2022/08/24 12:26:25;;;;;;;6.93;6.32;;;36.10;22.50;;;;;;5032024;28;20269;-88
2022/08/24 12:28:58;;;;;;;6.13;5.60;;;36.30;22.50;;;;;;5028395;28;20283;-86
2022/08/24 12:31:42;;;;;;;6.00;5.60;;;36.40;22.60;;;;;;5032127;28;20287;-87
2022/08/24 12:34:27;;;;;;;5.88;5.47;;;36.50;22.80;;;;;;5028006;28;20184;-86
2022/08/24 12:37:13;;;;;;;6.75;5.57;;;36.20;22.80;;;;;;5029111;28;20175;-86
2022/08/24 12:40:03;;;;;;;6.03;5.63;;;36.40;22.80;;;;;;5028372;28;20186;-86
2022/08/24 12:42:47;;;;;;;5.95;5.55;;;36.90;22.30;;;;;;5024235;28;20212;-85
2022/08/24 12:45:16;;;;;;;7.43;6.72;;;36.80;21.90;;;;;;5028528;28;20181;-87
2022/08/24 12:47:56;;;;;;;5.78;5.47;;;36.60;22.20;;;;;;5031832;28;20196;-86
2022/08/24 12:50:43;;;;;;;5.97;5.57;;;36.70;22.40;;;;;;5029055;28;20239;-87
2022/08/24 12:53:35;;;;;;;6.10;5.63;;;36.90;22.00;;;;;;5029361;28;20548;-86
2022/08/24 12:56:10;;;;;;;6.35;5.93;;;36.80;22.30;;;;;;5029333;28;20757;-86
2022/08/24 12:58:51;;;;;;;6.95;6.45;;;36.60;22.60;;;;;;5031090;28;20196;-88
2022/08/24 13:01:20;;;;;;;5.95;5.63;;;36.80;22.70;;;;;;5021114;28;20209;-87
2022/08/24 13:04:01;;;;;;;6.07;5.70;;;36.70;22.70;;;;;;5028642;28;20187;-86
2022/08/24 13:06:36;;;;;;;6.15;5.60;;;37.00;22.30;;;;;;5031110;28;20603;-87
2022/08/24 13:09:14;;;;;;;6.30;6.00;;;36.70;22.30;;;;;;5031654;28;20729;-86
2022/08/24 13:11:40;;;;;;;6.30;5.70;;;37.00;22.60;;;;;;5011588;28;20537;-86
2022/08/24 13:14:17;;;;;;;8.27;5.80;;;37.20;22.30;;;;;;5030823;28;20608;-86
2022/08/24 13:16:55;;;;;;;5.75;5.45;;;37.40;22.20;;;;;;5028054;28;20540;-86
2022/08/24 13:19:27;;;;;;;6.22;5.90;;;37.40;22.30;;;;;;5029990;28;20674;-87
2022/08/24 13:22:13;;;;;;;6.60;6.22;;;37.90;21.60;;;;;;5028643;28;20197;-86